Time;durP1;ratioP1;P1;durP2;ratioP2;P2;SDS_P1;SDS_P2;PMS_P1;PMS_P2;Temp;Humidity;BMP_temperature;BMP_pressure;BME280_temperature;BME280_humidity;BME280_pressure;Samples;Min_cycle;Max_cycle;Signal;HPM_P1;HPM_P2
2023/07/03 00:02:51;;;;;;;4.05;3.10;;;14.90;99.90;;;;;;10349086;28;20203;-78
2023/07/03 00:08:14;;;;;;;11.90;3.72;;;14.90;99.90;;;;;;10354760;28;20232;-78
2023/07/03 00:13:35;;;;;;;7.80;3.15;;;14.80;99.90;;;;;;10354292;28;20207;-80
2023/07/03 00:18:56;;;;;;;4.57;3.13;;;14.80;99.90;;;;;;10360057;28;20232;-81
2023/07/03 00:24:18;;;;;;;5.82;3.15;;;14.90;99.90;;;;;;10347411;28;20196;-80
2023/07/03 00:29:39;;;;;;;8.27;3.35;;;15.00;99.90;;;;;;10321665;28;20382;-80
2023/07/03 00:35:00;;;;;;;9.32;3.80;;;15.00;99.90;;;;;;10346891;28;20291;-80
2023/07/03 00:40:22;;;;;;;5.53;3.20;;;15.10;99.90;;;;;;10360427;28;20279;-80
2023/07/03 00:45:43;;;;;;;8.68;3.50;;;15.10;99.90;;;;;;10354772;28;20228;-80
2023/07/03 00:51:05;;;;;;;5.75;3.75;;;15.10;99.90;;;;;;10359150;28;20208;-80
2023/07/03 00:56:26;;;;;;;6.72;2.90;;;15.20;99.90;;;;;;10373990;28;20444;-78
2023/07/03 01:01:57;;;;;;;5.53;2.90;;;15.20;99.90;;;;;;10355108;28;20208;-78
2023/07/03 01:07:26;;;;;;;7.63;3.40;;;15.20;99.90;;;;;;10358404;28;20243;-78
2023/07/03 01:12:54;;;;;;;9.73;3.33;;;15.10;99.90;;;;;;10360426;28;20205;-80
2023/07/03 01:18:16;;;;;;;7.57;3.50;;;15.00;99.90;;;;;;10356811;28;20255;-80
2023/07/03 01:23:53;;;;;;;8.70;3.58;;;15.00;99.90;;;;;;10335818;28;20195;-81
2023/07/03 01:29:15;;;;;;;8.40;3.10;;;14.90;99.90;;;;;;10358850;28;20518;-80
2023/07/03 01:34:42;;;;;;;6.82;3.33;;;14.80;99.90;;;;;;10355014;28;20204;-79
2023/07/03 01:40:06;;;;;;;4.95;3.25;;;14.70;99.90;;;;;;10352530;28;20235;-80
2023/07/03 01:45:28;;;;;;;6.60;3.60;;;14.60;99.90;;;;;;10343552;28;20200;-80
2023/07/03 01:50:50;;;;;;;9.07;3.60;;;14.50;99.90;;;;;;10343761;28;20206;-80
2023/07/03 01:56:24;;;;;;;7.10;3.58;;;14.50;99.90;;;;;;10359056;28;20226;-80
2023/07/03 02:01:49;;;;;;;11.95;4.10;;;14.40;99.90;;;;;;10357571;28;20556;-80
2023/07/03 02:07:14;;;;;;;9.02;4.15;;;14.40;99.90;;;;;;10348291;28;20294;-80
2023/07/03 02:12:35;;;;;;;7.63;3.88;;;14.20;99.90;;;;;;10343811;28;20499;-80
2023/07/03 02:17:58;;;;;;;14.48;4.72;;;14.20;99.90;;;;;;10329846;28;20255;-80
2023/07/03 02:23:20;;;;;;;7.20;3.70;;;14.20;99.90;;;;;;10358518;28;20207;-80
2023/07/03 02:28:42;;;;;;;11.48;3.95;;;14.10;99.90;;;;;;10361492;28;20203;-79
2023/07/03 02:34:05;;;;;;;9.43;4.47;;;14.00;99.90;;;;;;10365082;28;20206;-80
2023/07/03 02:39:29;;;;;;;6.40;4.32;;;14.00;99.90;;;;;;10355565;28;20231;-80
2023/07/03 02:44:51;;;;;;;7.72;4.00;;;13.90;99.90;;;;;;10342220;28;20199;-80
2023/07/03 02:50:13;;;;;;;8.85;4.45;;;13.90;99.90;;;;;;10340490;28;20492;-80
2023/07/03 02:55:34;;;;;;;9.57;3.88;;;13.90;99.90;;;;;;10369540;28;20230;-80
2023/07/03 03:00:58;;;;;;;7.85;3.70;;;13.90;99.90;;;;;;10355750;28;20231;-80
2023/07/03 03:06:20;;;;;;;5.95;3.90;;;13.90;99.90;;;;;;10337832;28;20249;-80
2023/07/03 03:11:41;;;;;;;7.57;3.38;;;13.80;99.90;;;;;;10354940;28;20233;-80
2023/07/03 03:17:03;;;;;;;7.32;3.70;;;13.80;99.90;;;;;;10301572;28;20251;-79
2023/07/03 03:22:25;;;;;;;7.60;3.88;;;13.80;99.90;;;;;;10339383;28;20530;-79
2023/07/03 03:27:46;;;;;;;6.30;3.35;;;13.80;99.90;;;;;;10326974;28;20224;-80
2023/07/03 03:33:08;;;;;;;9.38;4.50;;;13.70;99.90;;;;;;10354505;28;20382;-79
2023/07/03 03:38:29;;;;;;;7.38;3.75;;;13.70;99.90;;;;;;10350023;28;20276;-80
2023/07/03 03:43:51;;;;;;;10.60;4.63;;;13.70;99.90;;;;;;10340197;28;20198;-79
2023/07/03 03:49:15;;;;;;;8.18;3.85;;;13.70;99.90;;;;;;10335001;28;20205;-80
2023/07/03 03:54:37;;;;;;;11.63;4.00;;;13.70;99.90;;;;;;10353965;28;20292;-79
2023/07/03 03:59:59;;;;;;;9.13;4.43;;;13.80;99.90;;;;;;10353475;28;20213;-79
2023/07/03 04:05:20;;;;;;;14.32;4.95;;;13.90;99.90;;;;;;10348718;28;20222;-79
2023/07/03 04:10:43;;;;;;;12.05;4.13;;;13.90;99.90;;;;;;10367428;28;20232;-79
2023/07/03 04:16:04;;;;;;;7.47;3.65;;;14.00;99.90;;;;;;10344307;28;20391;-80
2023/07/03 04:21:26;;;;;;;7.88;3.88;;;14.00;99.90;;;;;;10349731;28;20277;-80
2023/07/03 04:26:47;;;;;;;9.23;3.65;;;14.20;99.90;;;;;;10339463;28;20226;-79
2023/07/03 04:32:08;;;;;;;8.15;4.07;;;14.20;99.90;;;;;;10324272;28;20403;-80
2023/07/03 04:37:30;;;;;;;8.10;4.10;;;14.20;99.90;;;;;;10325539;28;20420;-79
2023/07/03 04:42:51;;;;;;;10.77;3.97;;;14.30;99.90;;;;;;10366971;28;20487;-79
2023/07/03 04:48:13;;;;;;;13.57;4.78;;;14.40;99.90;;;;;;10347334;28;20211;-80
2023/07/03 04:53:39;;;;;;;12.82;4.35;;;14.50;99.90;;;;;;10345015;28;20231;-79
2023/07/03 04:59:01;;;;;;;10.55;3.85;;;14.60;99.90;;;;;;10312297;28;20307;-79
2023/07/03 05:04:22;;;;;;;7.22;4.18;;;14.60;99.90;;;;;;10336282;28;20208;-79
2023/07/03 05:09:44;;;;;;;10.45;4.47;;;14.60;99.10;;;;;;10359426;28;20336;-80
2023/07/03 05:15:09;;;;;;;8.48;3.63;;;14.70;98.60;;;;;;10313886;28;20218;-80
2023/07/03 05:20:31;;;;;;;6.60;3.65;;;14.90;98.20;;;;;;10339077;28;20207;-80
2023/07/03 05:25:52;;;;;;;10.75;4.40;;;15.00;97.50;;;;;;10345040;28;20212;-80
2023/07/03 05:31:14;;;;;;;7.07;3.53;;;15.10;96.90;;;;;;10359510;28;20196;-80
2023/07/03 05:36:36;;;;;;;10.57;4.18;;;15.20;95.70;;;;;;10356984;28;20223;-80
2023/07/03 05:41:57;;;;;;;5.55;3.35;;;15.30;1.00;;;;;;10358427;28;20199;-78
2023/07/03 05:47:18;;;;;;;9.57;3.63;;;15.50;1.00;;;;;;10360786;28;20249;-79
2023/07/03 05:52:41;;;;;;;9.15;3.92;;;15.70;1.00;;;;;;10344194;28;20550;-81
2023/07/03 05:58:03;;;;;;;9.05;3.30;;;16.00;1.00;;;;;;10357703;28;20371;-81
2023/07/03 06:03:25;;;;;;;7.38;3.33;;;16.30;1.00;;;;;;10353954;28;20351;-81
2023/07/03 06:08:46;;;;;;;12.48;3.75;;;16.50;1.00;;;;;;10333034;28;20269;-81
2023/07/03 06:14:17;;;;;;;7.53;3.70;;;16.60;1.00;;;;;;10302466;28;20504;-81
2023/07/03 06:19:38;;;;;;;9.23;3.72;;;16.70;1.00;;;;;;10313307;28;20481;-82
2023/07/03 06:25:00;;;;;;;6.82;3.53;;;17.00;1.00;;;;;;10356954;28;20197;-82
2023/07/03 06:30:21;;;;;;;8.02;2.92;;;17.10;1.00;;;;;;10343268;28;20231;-82
2023/07/03 06:35:47;;;;;;;7.85;3.92;;;17.30;1.00;;;;;;10338082;28;20267;-82
2023/07/03 06:41:09;;;;;;;9.80;3.30;;;17.70;1.00;;;;;;10302294;28;20201;-82
2023/07/03 06:46:30;;;;;;;10.73;3.35;;;18.00;99.90;;;;;;10315895;28;20212;-82
2023/07/03 06:51:52;;;;;;;9.50;3.50;;;18.50;99.90;;;;;;10351704;28;20213;-82
2023/07/03 06:57:13;;;;;;;11.55;3.83;;;19.00;99.90;;;;;;10369619;28;20240;-82
2023/07/03 07:02:34;;;;;;;4.28;3.28;;;19.30;99.90;;;;;;10324352;28;20205;-82
2023/07/03 07:07:56;;;;;;;15.80;3.97;;;19.90;1.00;;;;;;10325617;28;20249;-82
2023/07/03 07:13:17;;;;;;;10.25;3.67;;;20.30;99.90;;;;;;10339237;28;20232;-83
2023/07/03 07:18:40;;;;;;;9.65;3.70;;;20.50;99.90;;;;;;10340278;28;20415;-82
2023/07/03 07:24:18;;;;;;;11.65;3.67;;;20.70;99.90;;;;;;10354147;28;20220;-83
2023/07/03 07:29:41;;;;;;;7.65;3.35;;;20.90;99.90;;;;;;10336820;28;20293;-80
2023/07/03 07:35:04;;;;;;;13.30;4.53;;;21.20;99.90;;;;;;10325694;28;20240;-83
2023/07/03 07:40:26;;;;;;;9.85;3.45;;;21.50;99.90;;;;;;10325230;28;20420;-79
2023/07/03 07:45:52;;;;;;;7.22;3.40;;;21.80;99.90;;;;;;10341700;28;20209;-76
2023/07/03 07:51:14;;;;;;;8.07;3.13;;;22.00;99.90;;;;;;10348891;28;20197;-84
2023/07/03 07:56:36;;;;;;;12.68;4.03;;;21.90;99.90;;;;;;10362310;28;20221;-77
2023/07/03 08:01:57;;;;;;;12.30;3.58;;;21.90;99.90;;;;;;10343645;28;20201;-80
2023/07/03 08:07:18;;;;;;;10.85;3.38;;;22.00;99.90;;;;;;10357169;28;20249;-83
2023/07/03 08:12:40;;;;;;;7.03;3.28;;;22.40;99.90;;;;;;10348398;28;20201;-81
2023/07/03 08:18:03;;;;;;;13.75;3.60;;;22.50;99.90;;;;;;10345236;28;20230;-77
2023/07/03 08:23:24;;;;;;;7.03;3.10;;;22.70;99.90;;;;;;10346566;28;20267;-78
2023/07/03 08:28:46;;;;;;;29.88;16.20;;;22.90;99.90;;;;;;10331037;28;20221;-82
2023/07/03 08:34:10;;;;;;;5.90;3.38;;;23.30;99.90;;;;;;10346903;28;20201;-78
2023/07/03 08:39:31;;;;;;;9.05;3.80;;;23.60;99.90;;;;;;10365632;28;20221;-83
2023/07/03 08:44:53;;;;;;;9.05;3.40;;;23.30;99.90;;;;;;10357991;28;20209;-81
2023/07/03 08:50:18;;;;;;;6.38;3.95;;;22.80;99.90;;;;;;10352439;28;20515;-81
2023/07/03 08:55:53;;;;;;;7.57;3.35;;;22.40;99.90;;;;;;10323908;28;20246;-78
2023/07/03 09:01:29;;;;;;;9.48;3.33;;;21.90;99.90;;;;;;10314459;28;20403;-78
2023/07/03 09:06:59;;;;;;;8.75;3.53;;;21.50;99.90;;;;;;10318714;28;20313;-78
2023/07/03 09:12:30;;;;;;;8.15;3.67;;;21.10;99.90;;;;;;10329997;28;20211;-81
2023/07/03 09:17:54;;;;;;;11.75;4.00;;;20.70;99.90;;;;;;10353709;28;20257;-77
2023/07/03 09:23:26;;;;;;;9.93;3.88;;;20.60;99.90;;;;;;10349870;28;20213;-79
2023/07/03 09:28:49;;;;;;;11.00;3.88;;;20.80;99.90;;;;;;10325038;28;20862;-82
2023/07/03 09:34:11;;;;;;;6.93;3.85;;;21.60;99.90;;;;;;10298702;28;20222;-78
2023/07/03 09:39:32;;;;;;;9.70;3.90;;;22.40;99.90;;;;;;10348999;28;20237;-82
2023/07/03 09:44:54;;;;;;;7.50;3.80;;;22.40;99.90;;;;;;10355726;28;20198;-81
2023/07/03 09:50:20;;;;;;;11.40;4.03;;;22.60;99.90;;;;;;10348333;28;20205;-85
2023/07/03 09:55:43;;;;;;;16.83;3.90;;;22.30;99.90;;;;;;10351495;28;20281;-82
2023/07/03 10:01:06;;;;;;;7.45;4.03;;;21.90;99.90;;;;;;10310693;28;20223;-82
2023/07/03 10:06:28;;;;;;;12.10;3.97;;;21.90;99.90;;;;;;10315460;28;20250;-83
2023/07/03 10:12:11;;;;;;;5.80;3.50;;;22.00;99.90;;;;;;10349209;28;20512;-87
2023/07/03 10:17:39;;;;;;;14.77;4.22;;;22.00;99.90;;;;;;10319551;28;20253;-80
2023/07/03 10:23:03;;;;;;;7.28;3.47;;;21.80;99.90;;;;;;10296190;28;20206;-81
2023/07/03 10:28:31;;;;;;;8.60;3.88;;;21.70;99.90;;;;;;10339154;28;20261;-84
2023/07/03 10:34:01;;;;;;;11.82;3.72;;;21.70;99.90;;;;;;10352374;28;20505;-91
2023/07/03 10:40:10;;;;;;;12.85;4.15;;;21.60;99.90;;;;;;10342078;28;20260;-82
2023/07/03 10:45:37;;;;;;;10.65;3.95;;;22.20;99.90;;;;;;10336392;28;20212;-81
2023/07/03 10:51:42;;;;;;;7.38;3.47;;;22.80;99.90;;;;;;10332380;28;20194;-80
2023/07/03 10:57:05;;;;;;;10.57;4.03;;;22.50;99.90;;;;;;10268934;28;20620;-81
2023/07/03 11:02:51;;;;;;;6.50;3.30;;;22.10;99.90;;;;;;10267265;28;20344;-83
2023/07/03 11:08:19;;;;;;;7.32;3.97;;;21.80;99.90;;;;;;10266056;28;20269;-81
2023/07/03 11:13:51;;;;;;;9.43;3.90;;;21.70;99.90;;;;;;10272954;28;20493;-79
2023/07/03 11:20:14;;;;;;;8.70;3.70;;;21.80;99.90;;;;;;10261567;28;20247;-82
2023/07/03 11:25:53;;;;;;;14.85;4.85;;;22.60;99.90;;;;;;10306598;28;20223;-81
2023/07/03 11:31:19;;;;;;;10.88;4.57;;;22.70;99.90;;;;;;10291638;28;20298;-78
2023/07/03 11:36:54;;;;;;;13.18;3.97;;;23.40;99.90;;;;;;10302493;28;20540;-80
2023/07/03 11:42:25;;;;;;;8.70;4.05;;;23.60;99.90;;;;;;10299279;28;20233;-80
2023/07/03 11:47:52;;;;;;;9.05;4.60;;;23.00;99.90;;;;;;10305475;28;20278;-81
2023/07/03 11:53:34;;;;;;;12.20;4.45;;;22.50;99.90;;;;;;10309376;28;20212;-83
2023/07/03 11:59:30;;;;;;;6.47;3.60;;;22.00;99.90;;;;;;10298833;28;20252;-79
2023/07/03 12:04:52;;;;;;;11.52;3.50;;;21.70;99.90;;;;;;10355346;28;20459;-80
2023/07/03 12:10:20;;;;;;;12.75;4.82;;;21.60;99.90;;;;;;10373379;28;20609;-80
2023/07/03 12:15:41;;;;;;;9.70;4.28;;;21.70;99.90;;;;;;10368855;28;20205;-81
2023/07/03 12:21:04;;;;;;;8.80;3.90;;;22.40;99.90;;;;;;10356407;28;20229;-79
2023/07/03 12:26:26;;;;;;;11.90;4.38;;;22.30;99.90;;;;;;10375052;28;20220;-85
2023/07/03 12:32:08;;;;;;;9.18;4.45;;;21.90;99.90;;;;;;10337452;28;20201;-78
2023/07/03 12:37:30;;;;;;;6.80;3.92;;;21.50;99.90;;;;;;10340330;28;20619;-76
2023/07/03 12:42:56;;;;;;;6.88;3.97;;;21.30;99.90;;;;;;10356796;28;20200;-83
2023/07/03 12:48:20;;;;;;;10.07;3.83;;;21.60;99.90;;;;;;10326557;28;20210;-86
2023/07/03 12:53:42;;;;;;;13.65;3.63;;;21.80;99.90;;;;;;10301791;28;20397;-83
2023/07/03 12:59:07;;;;;;;20.30;5.43;;;21.90;99.90;;;;;;10316272;28;20558;-80
2023/07/03 13:04:34;;;;;;;11.57;4.45;;;22.50;99.90;;;;;;10338697;28;20289;-81
2023/07/03 13:09:58;;;;;;;9.77;4.28;;;22.90;99.90;;;;;;10325611;28;20238;-78
2023/07/03 13:15:33;;;;;;;6.70;3.42;;;23.40;99.90;;;;;;10350806;28;20206;-83
2023/07/03 13:20:55;;;;;;;8.40;4.05;;;23.10;99.90;;;;;;10323150;28;20280;-79
2023/07/03 13:26:23;;;;;;;11.43;4.32;;;23.50;99.90;;;;;;10351867;28;20205;-81
2023/07/03 13:31:44;;;;;;;13.13;3.38;;;23.80;99.90;;;;;;10337345;28;20202;-84
2023/07/03 13:37:11;;;;;;;8.68;2.92;;;24.00;99.90;;;;;;10350231;28;20608;-84
2023/07/03 13:42:32;;;;;;;9.25;3.20;;;24.00;99.90;;;;;;10351961;28;20227;-87
2023/07/03 13:47:54;;;;;;;10.90;3.17;;;23.50;99.90;;;;;;10332645;28;20214;-86
2023/07/03 13:53:16;;;;;;;7.72;3.80;;;23.20;99.90;;;;;;10284023;28;20205;-83
2023/07/03 13:58:37;;;;;;;8.13;3.42;;;23.00;99.90;;;;;;10301040;28;20272;-84
2023/07/03 14:04:02;;;;;;;10.93;3.47;;;23.20;99.90;;;;;;10338864;28;20232;-85
2023/07/03 14:09:24;;;;;;;6.13;3.00;;;23.10;99.90;;;;;;10296065;28;1238724;-80
2023/07/03 14:14:45;;;;;;;5.32;2.80;;;22.70;99.90;;;;;;10337681;28;20233;-80
2023/07/03 14:20:11;;;;;;;7.93;3.35;;;22.40;99.90;;;;;;10339549;28;20271;-84
2023/07/03 14:25:32;;;;;;;13.48;3.45;;;22.80;99.90;;;;;;10338816;28;20281;-82
2023/07/03 14:30:54;;;;;;;23.45;3.45;;;22.90;99.90;;;;;;10311433;28;20290;-84
2023/07/03 14:36:17;;;;;;;8.43;2.75;;;23.10;99.90;;;;;;10304322;28;20403;-85
2023/07/03 14:41:38;;;;;;;8.02;3.13;;;22.90;99.90;;;;;;10351875;28;20201;-80
2023/07/03 14:47:01;;;;;;;11.48;3.50;;;22.60;1.00;;;;;;10293768;28;20214;-82
2023/07/03 14:52:22;;;;;;;12.68;3.05;;;22.40;99.90;;;;;;10297064;28;20282;-81
2023/07/03 14:57:45;;;;;;;7.75;3.17;;;22.50;99.90;;;;;;10331667;28;20227;-81
2023/07/03 15:03:06;;;;;;;5.15;2.72;;;22.30;99.90;;;;;;10301727;28;20205;-83
2023/07/03 15:08:28;;;;;;;7.60;2.65;;;22.30;99.90;;;;;;10337672;28;20445;-80
2023/07/03 15:13:49;;;;;;;6.13;2.90;;;22.10;99.90;;;;;;10354728;28;20281;-83
2023/07/03 15:19:14;;;;;;;6.78;2.53;;;22.30;99.90;;;;;;10341419;28;20235;-81
2023/07/03 15:24:36;;;;;;;5.68;2.30;;;22.40;99.90;;;;;;10338342;28;20221;-80
2023/07/03 15:29:57;;;;;;;6.30;2.67;;;22.30;99.90;;;;;;10333512;28;20237;-81
2023/07/03 15:35:19;;;;;;;8.43;2.50;;;22.20;99.90;;;;;;10337440;28;20194;-82
2023/07/03 15:40:52;;;;;;;7.68;4.20;;;22.10;99.90;;;;;;10315721;28;20236;-82
2023/07/03 15:46:16;;;;;;;8.32;3.28;;;22.30;99.90;;;;;;10337630;28;20202;-82
2023/07/03 15:51:37;;;;;;;6.93;3.00;;;22.30;99.90;;;;;;10340626;28;20205;-82
2023/07/03 15:56:59;;;;;;;8.18;2.60;;;22.30;99.90;;;;;;10335445;28;20237;-83
2023/07/03 16:02:20;;;;;;;5.55;2.95;;;22.10;99.90;;;;;;10354130;28;20190;-82
2023/07/03 16:07:41;;;;;;;5.63;2.88;;;21.90;99.90;;;;;;10316691;28;20432;-83
2023/07/03 16:13:03;;;;;;;8.57;2.70;;;21.80;99.90;;;;;;10313520;28;20222;-83
2023/07/03 16:18:26;;;;;;;6.15;3.00;;;21.70;99.90;;;;;;10365107;28;20236;-83
2023/07/03 16:23:49;;;;;;;6.43;3.15;;;21.60;99.90;;;;;;10325937;28;20508;-83
2023/07/03 16:29:10;;;;;;;5.90;2.92;;;21.60;99.90;;;;;;10337168;28;20517;-83
2023/07/03 16:34:32;;;;;;;9.07;3.88;;;21.50;99.90;;;;;;10313543;28;20261;-83
2023/07/03 16:39:55;;;;;;;7.53;3.83;;;;;;;;;;10320333;28;20249;-83
2023/07/03 16:45:16;;;;;;;8.48;2.90;;;21.30;99.90;;;;;;10348523;28;20198;-82
2023/07/03 16:50:38;;;;;;;5.18;2.65;;;21.50;99.90;;;;;;10352967;28;20205;-83
2023/07/03 16:56:39;;;;;;;5.55;2.55;;;21.60;99.90;;;;;;10327336;28;20269;-83
2023/07/03 17:02:00;;;;;;;4.70;2.50;;;21.50;99.90;;;;;;10300686;28;20211;-83
2023/07/03 17:07:22;;;;;;;7.60;3.92;;;21.60;99.90;;;;;;10300780;28;20234;-83
2023/07/03 17:12:43;;;;;;;6.55;2.60;;;21.30;99.90;;;;;;10300802;28;20218;-83
2023/07/03 17:18:05;;;;;;;11.38;3.65;;;21.30;99.90;;;;;;10324170;28;20433;-82
2023/07/03 17:23:26;;;;;;;8.73;3.03;;;21.30;99.90;;;;;;10340902;28;20383;-82
2023/07/03 17:28:47;;;;;;;7.72;3.53;;;21.20;99.90;;;;;;10336556;28;20236;-83
2023/07/03 17:34:08;;;;;;;7.53;3.05;;;21.30;99.90;;;;;;10317092;28;20285;-83
2023/07/03 17:39:29;;;;;;;6.53;2.65;;;21.10;99.90;;;;;;10350001;28;20229;-83
2023/07/03 17:44:50;;;;;;;6.07;2.83;;;20.90;99.90;;;;;;10318585;28;20229;-83
2023/07/03 17:50:12;;;;;;;6.20;2.70;;;20.80;99.90;;;;;;10304436;28;20287;-83
2023/07/03 17:55:33;;;;;;;9.82;3.05;;;20.60;99.90;;;;;;10318005;28;20191;-82
2023/07/03 18:01:00;;;;;;;7.45;2.60;;;20.40;99.90;;;;;;10294070;28;20253;-83
2023/07/03 18:06:22;;;;;;;6.68;3.10;;;20.20;99.90;;;;;;10316932;28;20425;-82
2023/07/03 18:11:43;;;;;;;8.75;2.80;;;20.20;99.90;;;;;;10303544;28;20503;-83
2023/07/03 18:17:06;;;;;;;8.15;3.25;;;20.20;99.90;;;;;;10315119;28;20217;-83
2023/07/03 18:22:28;;;;;;;5.95;2.85;;;20.10;99.90;;;;;;10343886;28;20201;-82
2023/07/03 18:27:50;;;;;;;10.90;3.50;;;20.10;99.90;;;;;;10342774;28;20252;-83
2023/07/03 18:33:12;;;;;;;7.07;2.55;;;20.00;99.90;;;;;;10356934;28;20201;-83
2023/07/03 18:38:34;;;;;;;6.25;2.97;;;20.00;99.90;;;;;;10355940;28;20227;-83
2023/07/03 18:43:55;;;;;;;9.40;4.07;;;20.00;99.90;;;;;;10328567;28;20201;-83
2023/07/03 18:49:17;;;;;;;6.35;3.47;;;;;;;;;;10349922;28;20194;-82
2023/07/03 18:54:38;;;;;;;10.25;3.47;;;19.80;99.90;;;;;;10308870;28;20457;-83
2023/07/03 19:00:03;;;;;;;7.30;3.50;;;19.70;99.90;;;;;;10341885;28;20218;-83
2023/07/03 19:05:25;;;;;;;6.10;3.13;;;19.60;99.90;;;;;;10341783;28;20449;-82
2023/07/03 19:10:46;;;;;;;7.07;3.40;;;19.50;99.90;;;;;;10349983;28;20245;-83
2023/07/03 19:16:10;;;;;;;7.93;3.22;;;19.50;99.90;;;;;;10337640;28;20198;-83
2023/07/03 19:21:31;;;;;;;4.82;2.78;;;19.50;99.90;;;;;;10322318;28;20381;-83
2023/07/03 19:26:53;;;;;;;7.72;3.50;;;19.60;99.90;;;;;;10314625;28;20548;-83
2023/07/03 19:32:14;;;;;;;10.20;3.88;;;19.50;99.90;;;;;;10340974;28;20248;-83
2023/07/03 19:37:35;;;;;;;4.68;3.08;;;19.40;99.90;;;;;;10326179;28;20224;-83
2023/07/03 19:42:57;;;;;;;9.90;3.17;;;19.40;99.90;;;;;;10327289;28;20205;-83
2023/07/03 19:48:18;;;;;;;8.80;2.85;;;19.30;99.90;;;;;;10340966;28;20432;-83
2023/07/03 19:53:40;;;;;;;8.23;2.95;;;19.30;99.90;;;;;;10312221;28;20212;-83
2023/07/03 19:59:01;;;;;;;9.48;3.10;;;19.10;99.90;;;;;;10300349;28;20218;-82
2023/07/03 20:04:22;;;;;;;7.35;3.42;;;19.00;99.90;;;;;;10317430;28;20208;-82
2023/07/03 20:09:44;;;;;;;7.85;2.72;;;18.70;99.90;;;;;;10313724;28;20234;-82
2023/07/03 20:15:09;;;;;;;6.90;3.05;;;18.50;99.90;;;;;;10327730;28;20415;-82
2023/07/03 20:20:31;;;;;;;7.90;3.15;;;18.30;99.90;;;;;;10335702;28;20305;-82
2023/07/03 20:25:54;;;;;;;9.95;2.90;;;18.00;99.90;;;;;;10346275;28;20247;-82
2023/07/03 20:31:15;;;;;;;7.60;2.78;;;17.80;1.00;;;;;;10301336;28;20229;-82
2023/07/03 20:36:37;;;;;;;9.55;2.90;;;17.70;1.00;;;;;;10348978;28;20209;-82
2023/07/03 20:41:58;;;;;;;6.88;2.70;;;17.70;1.00;;;;;;10361380;28;20519;-82
2023/07/03 20:47:20;;;;;;;9.60;2.90;;;17.70;1.00;;;;;;10374924;28;20481;-81
2023/07/03 20:52:41;;;;;;;7.07;2.95;;;17.70;1.00;;;;;;10358296;28;20198;-81
2023/07/03 20:58:02;;;;;;;7.35;3.05;;;17.60;1.00;;;;;;10346648;28;20240;-82
2023/07/03 21:03:24;;;;;;;4.45;2.83;;;17.60;1.00;;;;;;10333301;28;20201;-83
2023/07/03 21:08:47;;;;;;;5.35;2.97;;;17.60;1.00;;;;;;10330865;28;20233;-83
2023/07/03 21:14:08;;;;;;;5.07;2.63;;;17.60;1.00;;;;;;10346277;28;20236;-83
2023/07/03 21:19:30;;;;;;;7.85;3.05;;;17.50;1.00;;;;;;10333001;28;20232;-84
2023/07/03 21:24:51;;;;;;;5.38;2.35;;;17.50;1.00;;;;;;10345056;28;20268;-83
2023/07/03 21:30:13;;;;;;;6.97;3.90;;;17.50;1.00;;;;;;10359497;28;20256;-83
2023/07/03 21:35:34;;;;;;;5.35;2.95;;;17.40;1.00;;;;;;10361886;28;20281;-83
2023/07/03 21:40:56;;;;;;;7.03;2.83;;;17.30;25.40;;;;;;10330059;28;20598;-83
2023/07/03 21:46:20;;;;;;;5.53;3.28;;;17.20;99.90;;;;;;10346413;28;20187;-83
2023/07/03 21:51:41;;;;;;;8.95;3.15;;;17.10;99.90;;;;;;10311104;28;20209;-83
2023/07/03 21:57:03;;;;;;;6.47;3.10;;;17.10;99.90;;;;;;10306456;28;20233;-83
2023/07/03 22:02:24;;;;;;;4.80;2.75;;;17.10;99.90;;;;;;10304414;28;20220;-83
2023/07/03 22:07:45;;;;;;;7.15;2.15;;;17.00;8.90;;;;;;10307877;28;20244;-83
2023/07/03 22:13:09;;;;;;;5.00;2.28;;;16.90;23.20;;;;;;10313834;28;20210;-83
2023/07/03 22:18:30;;;;;;;5.82;2.42;;;16.80;79.90;;;;;;10303783;28;20240;-83
2023/07/03 22:23:51;;;;;;;4.85;2.88;;;16.70;99.90;;;;;;10305993;28;20203;-83
2023/07/03 22:29:13;;;;;;;4.70;2.75;;;16.70;99.90;;;;;;10336911;28;20208;-84
2023/07/03 22:34:34;;;;;;;7.03;2.83;;;16.70;99.90;;;;;;10329747;28;20201;-83
2023/07/03 22:39:55;;;;;;;8.05;3.67;;;16.60;99.90;;;;;;10356401;28;20427;-82
2023/07/03 22:45:17;;;;;;;7.75;4.40;;;16.50;99.90;;;;;;10289346;28;20559;-83
2023/07/03 22:50:40;;;;;;;7.85;4.43;;;16.50;99.90;;;;;;10316451;28;20496;-83
2023/07/03 22:56:05;;;;;;;9.73;3.92;;;16.50;99.90;;;;;;10291384;28;20202;-83
2023/07/03 23:01:27;;;;;;;6.70;3.33;;;16.50;99.90;;;;;;10302036;28;20467;-83
2023/07/03 23:06:48;;;;;;;6.60;3.03;;;16.50;99.90;;;;;;10301869;28;20229;-84
2023/07/03 23:12:10;;;;;;;5.60;2.63;;;16.50;99.90;;;;;;10318858;28;20596;-83
2023/07/03 23:17:33;;;;;;;10.13;2.88;;;16.50;99.90;;;;;;10321467;28;20288;-82
2023/07/03 23:22:55;;;;;;;6.40;3.15;;;16.50;99.90;;;;;;10314965;28;20222;-83
2023/07/03 23:28:17;;;;;;;6.85;3.15;;;16.50;99.90;;;;;;10354833;28;20204;-83
2023/07/03 23:33:40;;;;;;;8.05;2.80;;;16.40;99.90;;;;;;10355950;28;20459;-84
2023/07/03 23:39:02;;;;;;;4.55;2.72;;;16.30;99.90;;;;;;10341972;28;20225;-83
2023/07/03 23:44:24;;;;;;;5.15;2.08;;;16.10;99.90;;;;;;10358648;28;20523;-83
2023/07/03 23:49:45;;;;;;;6.60;2.42;;;16.10;99.90;;;;;;10354998;28;20484;-83
2023/07/03 23:55:08;;;;;;;3.85;2.17;;;16.20;99.90;;;;;;10346601;28;20261;-83
